Time;durP1;ratioP1;P1;durP2;ratioP2;P2;SDS_P1;SDS_P2;PMS_P1;PMS_P2;Temp;Humidity;BMP_temperature;BMP_pressure;BME280_temperature;BME280_humidity;BME280_pressure;Samples;Min_cycle;Max_cycle;Signal;HPM_P1;HPM_P2
2023/06/10 00:01:24;;;;;;;13.87;2.97;;;;;;;16.93;91.91;101137.47;5056644;28;20523;-76
2023/06/10 00:03:51;;;;;;;8.60;2.73;;;;;;;16.89;92.26;101126.38;5056666;28;20443;-75
2023/06/10 00:06:18;;;;;;;8.13;2.53;;;;;;;16.88;91.74;101138.44;5058071;28;20447;-76
2023/06/10 00:08:47;;;;;;;7.53;2.80;;;;;;;16.80;92.15;101136.56;5056772;28;20450;-75
2023/06/10 00:11:15;;;;;;;6.87;2.40;;;;;;;16.83;92.54;101135.91;5056742;28;20450;-76
2023/06/10 00:13:41;;;;;;;6.70;2.70;;;;;;;16.87;92.39;101136.06;5070543;28;20480;-75
2023/06/10 00:16:08;;;;;;;11.33;2.80;;;;;;;16.86;92.15;101131.69;5075921;28;20485;-75
2023/06/10 00:18:36;;;;;;;7.30;2.50;;;;;;;16.86;91.76;101121.53;5074692;28;20812;-75
2023/06/10 00:21:04;;;;;;;7.43;2.53;;;;;;;16.84;91.65;101128.50;5076256;28;20449;-75
2023/06/10 00:23:31;;;;;;;7.20;2.80;;;;;;;16.83;91.72;101137.84;5061244;28;20446;-75
2023/06/10 00:25:59;;;;;;;12.03;2.37;;;;;;;16.81;92.14;101145.56;5056060;28;21005;-75
2023/06/10 00:28:27;;;;;;;7.53;2.43;;;;;;;16.73;92.33;101129.97;5057090;28;20893;-76
2023/06/10 00:30:54;;;;;;;7.17;2.57;;;;;;;16.75;92.01;101142.22;5056195;28;20533;-75
2023/06/10 00:33:20;;;;;;;7.47;2.30;;;;;;;16.69;91.88;101126.25;5056067;28;21000;-75
2023/06/10 00:35:47;;;;;;;7.50;2.83;;;;;;;16.62;92.59;101132.25;5067334;28;20587;-75
2023/06/10 00:38:14;;;;;;;6.60;2.30;;;;;;;16.63;92.45;101128.38;5062911;28;20438;-75
2023/06/10 00:40:43;;;;;;;6.57;2.30;;;;;;;16.61;92.56;101123.25;5075996;28;20536;-75
2023/06/10 00:43:09;;;;;;;8.47;2.97;;;;;;;16.55;93.22;101121.81;5075586;28;20536;-75
2023/06/10 00:45:37;;;;;;;7.57;2.30;;;;;;;16.54;93.72;101117.47;5072892;28;20552;-75
2023/06/10 00:48:05;;;;;;;7.20;2.50;;;;;;;16.56;93.65;101130.84;5055793;28;20450;-75
2023/06/10 00:50:32;;;;;;;9.73;2.67;;;;;;;16.53;93.42;101123.28;5061873;28;20529;-75
2023/06/10 00:53:00;;;;;;;7.23;2.27;;;;;;;16.53;93.21;101115.88;5076158;28;20503;-75
2023/06/10 00:55:27;;;;;;;8.50;2.50;;;;;;;16.56;92.95;101115.25;5074144;28;20488;-75
2023/06/10 00:57:54;;;;;;;11.30;2.80;;;;;;;16.56;93.08;101128.13;5075533;28;20533;-76
2023/06/10 01:00:21;;;;;;;10.57;2.57;;;;;;;16.48;92.91;101137.94;5069143;28;20443;-75
2023/06/10 01:02:49;;;;;;;8.53;2.70;;;;;;;16.37;94.16;101128.47;5055778;28;20527;-75
2023/06/10 01:05:15;;;;;;;6.37;2.30;;;;;;;16.35;94.17;101115.16;5055644;28;20511;-75
2023/06/10 01:07:53;;;;;;;11.30;2.97;;;;;;;16.37;94.41;101126.53;5060946;28;20446;-75
2023/06/10 01:10:26;;;;;;;8.90;2.30;;;;;;;16.38;93.75;101122.72;5073385;28;20794;-75
2023/06/10 01:13:02;;;;;;;8.23;2.90;;;;;;;16.36;94.40;101122.22;5071148;28;20441;-75
2023/06/10 01:15:30;;;;;;;11.80;2.30;;;;;;;16.35;94.94;101131.56;5055120;28;21054;-75
2023/06/10 01:17:59;;;;;;;9.40;3.17;;;;;;;16.39;94.02;101134.44;5055411;28;20511;-75
2023/06/10 01:20:28;;;;;;;10.03;3.23;;;;;;;16.37;94.51;101134.75;5055248;28;20452;-75
2023/06/10 01:22:57;;;;;;;6.97;2.20;;;;;;;16.34;94.61;101135.44;5055386;28;20569;-76
2023/06/10 01:25:27;;;;;;;8.67;2.77;;;;;;;16.26;95.21;101132.72;5061316;28;20523;-75
2023/06/10 01:28:02;;;;;;;10.30;1.87;;;;;;;16.28;94.80;101131.25;5055102;28;20481;-76
2023/06/10 01:30:37;;;;;;;15.40;2.60;;;;;;;16.28;94.96;101136.72;5055267;28;20433;-75
2023/06/10 01:33:10;;;;;;;10.03;3.03;;;;;;;16.26;94.74;101130.78;5055322;28;20444;-75
2023/06/10 01:35:38;;;;;;;7.90;2.13;;;;;;;16.28;94.73;101138.63;5054815;28;20525;-75
2023/06/10 01:38:07;;;;;;;5.93;1.70;;;;;;;16.30;94.97;101131.72;5069977;28;20450;-75
2023/06/10 01:40:35;;;;;;;6.27;2.30;;;;;;;16.28;95.05;101135.91;5054845;28;20898;-75
2023/06/10 01:43:03;;;;;;;7.47;2.30;;;;;;;16.25;95.22;101131.91;5057257;28;20826;-75
2023/06/10 01:45:29;;;;;;;12.70;3.50;;;;;;;16.18;95.71;101139.00;5054718;28;20504;-76
2023/06/10 01:47:56;;;;;;;7.57;2.43;;;;;;;16.24;94.73;101143.94;5055003;28;20810;-76
2023/06/10 01:50:22;;;;;;;6.00;2.10;;;;;;;16.19;94.98;101138.66;5054740;28;20486;-76
2023/06/10 01:52:49;;;;;;;8.47;2.47;;;;;;;16.18;94.71;101134.34;5055682;28;20453;-75
2023/06/10 01:55:17;;;;;;;7.67;2.40;;;;;;;16.17;95.11;101142.88;5054520;28;20868;-76
2023/06/10 01:57:44;;;;;;;7.30;2.27;;;;;;;16.20;94.97;101143.00;5054781;28;20533;-75
2023/06/10 02:00:13;;;;;;;7.90;2.13;;;;;;;16.18;95.06;101150.72;5054074;28;20939;-76
2023/06/10 02:02:39;;;;;;;9.00;2.37;;;;;;;16.04;95.41;101147.38;5055443;28;20447;-75
2023/06/10 02:05:06;;;;;;;10.20;3.17;;;;;;;16.02;95.74;101144.16;5054553;28;20494;-75
2023/06/10 02:07:33;;;;;;;10.07;2.73;;;;;;;15.99;96.20;101147.56;5054500;28;20449;-75
2023/06/10 02:09:59;;;;;;;8.07;2.73;;;;;;;15.96;96.09;101140.00;5054193;28;21017;-75
2023/06/10 02:12:27;;;;;;;5.77;2.03;;;;;;;15.95;96.58;101152.06;5056535;28;20438;-75
2023/06/10 02:14:54;;;;;;;10.37;2.57;;;;;;;15.95;96.39;101138.41;5072015;28;20534;-75
2023/06/10 02:17:21;;;;;;;10.03;2.40;;;;;;;16.00;96.20;101136.28;5074134;28;20539;-75
2023/06/10 02:19:52;;;;;;;8.83;2.63;;;;;;;15.97;96.36;101139.66;5074426;28;20524;-76
2023/06/10 02:22:21;;;;;;;8.43;2.43;;;;;;;15.96;96.14;101143.53;5074057;28;20448;-75
2023/06/10 02:24:48;;;;;;;12.00;2.83;;;;;;;15.96;96.25;101149.00;5056592;28;20462;-75
2023/06/10 02:27:15;;;;;;;6.93;2.47;;;;;;;15.95;96.18;101146.59;5069265;28;20473;-75
2023/06/10 02:29:44;;;;;;;9.40;2.77;;;;;;;15.95;96.44;101150.13;5073910;28;20537;-75
2023/06/10 02:32:10;;;;;;;6.13;2.23;;;;;;;15.91;96.80;101149.16;5073465;28;20453;-75
2023/06/10 02:34:37;;;;;;;6.20;2.07;;;;;;;15.94;96.71;101148.53;5072253;28;20568;-75
2023/06/10 02:37:04;;;;;;;6.73;1.90;;;;;;;15.85;96.59;101145.81;5071608;28;20560;-75
2023/06/10 02:39:31;;;;;;;7.07;2.60;;;;;;;15.87;96.62;101150.94;5056055;28;20537;-75
2023/06/10 02:41:58;;;;;;;12.67;3.00;;;;;;;15.85;96.74;101151.28;5053869;28;20489;-75
2023/06/10 02:44:24;;;;;;;10.10;3.00;;;;;;;15.83;96.64;101152.72;5058370;28;20506;-75
2023/06/10 02:46:52;;;;;;;11.10;2.80;;;;;;;15.81;96.84;101150.31;5064143;28;20473;-75
2023/06/10 02:49:19;;;;;;;7.50;2.03;;;;;;;15.75;97.16;101148.84;5073295;28;20442;-75
2023/06/10 02:51:45;;;;;;;7.87;2.03;;;;;;;15.74;97.52;101147.25;5073190;28;20453;-75
2023/06/10 02:54:12;;;;;;;9.53;2.57;;;;;;;15.73;97.94;101148.38;5073990;28;20548;-75
2023/06/10 02:56:41;;;;;;;9.50;2.03;;;;;;;15.74;97.60;101149.19;5071617;28;20547;-75
2023/06/10 02:59:08;;;;;;;7.80;2.40;;;;;;;15.71;97.58;101155.28;5073065;28;20969;-75
2023/06/10 03:01:36;;;;;;;7.70;2.27;;;;;;;15.73;97.52;101153.03;5073036;28;20494;-75
2023/06/10 03:04:05;;;;;;;7.50;2.10;;;;;;;15.70;97.74;101146.28;5073079;28;20446;-75
2023/06/10 03:06:33;;;;;;;7.87;2.60;;;;;;;15.73;97.30;101145.66;5071608;28;20476;-75
2023/06/10 03:08:59;;;;;;;8.30;1.67;;;;;;;15.74;97.66;101149.97;5073253;28;20506;-75
2023/06/10 03:11:26;;;;;;;6.70;2.37;;;;;;;15.70;97.94;101148.22;5072868;28;20556;-75
2023/06/10 03:13:53;;;;;;;13.33;2.73;;;;;;;15.70;97.79;101154.47;5071525;28;20508;-75
2023/06/10 03:16:20;;;;;;;6.80;2.13;;;;;;;15.72;98.18;101156.91;5054563;28;20518;-75
2023/06/10 03:18:47;;;;;;;8.10;2.43;;;;;;;15.67;98.36;101157.88;5053184;28;20538;-75
2023/06/10 03:21:15;;;;;;;8.30;2.20;;;;;;;15.72;98.02;101157.69;5053638;28;20454;-75
2023/06/10 03:23:42;;;;;;;7.47;2.60;;;;;;;15.71;98.00;101161.53;5053040;28;20472;-75
2023/06/10 03:26:09;;;;;;;15.80;2.70;;;;;;;15.68;97.89;101167.66;5053018;28;20505;-75
2023/06/10 03:28:36;;;;;;;7.67;2.40;;;;;;;15.74;98.14;101160.09;5054169;28;20454;-75
2023/06/10 03:31:03;;;;;;;9.60;2.77;;;;;;;15.79;97.41;101158.00;5053437;28;20453;-75
2023/06/10 03:33:29;;;;;;;7.53;2.27;;;;;;;15.79;97.73;101155.28;5053670;28;20978;-75
2023/06/10 03:35:56;;;;;;;10.37;2.43;;;;;;;15.83;97.48;101158.16;5068436;22;20531;-69
2023/06/10 03:38:24;;;;;;;8.53;2.90;;;;;;;15.80;97.29;101165.06;5038691;28;20507;-71
2023/06/10 03:40:51;;;;;;;9.83;2.43;;;;;;;15.82;97.44;101157.38;5025761;28;20471;-71
2023/06/10 03:43:18;;;;;;;9.90;2.80;;;;;;;15.82;97.17;101159.31;5013766;28;20452;-71
2023/06/10 03:45:45;;;;;;;16.77;2.97;;;;;;;15.84;97.23;101173.44;5033063;28;20443;-71
2023/06/10 03:48:11;;;;;;;7.30;2.63;;;;;;;15.84;97.42;101171.50;5033015;28;20447;-71
2023/06/10 03:50:38;;;;;;;9.93;2.87;;;;;;;15.86;97.30;101166.53;5027607;28;20475;-69
2023/06/10 03:53:04;;;;;;;6.70;2.50;;;;;;;15.89;97.51;101168.63;5021810;28;20505;-71
2023/06/10 03:55:32;;;;;;;8.43;2.20;;;;;;;15.91;97.20;101165.56;5032590;28;20459;-71
2023/06/10 03:57:59;;;;;;;8.33;2.90;;;;;;;15.93;97.05;101174.22;5019505;28;20454;-71
2023/06/10 04:00:26;;;;;;;7.47;2.50;;;;;;;15.88;97.54;101166.19;5013122;28;20468;-71
2023/06/10 04:02:52;;;;;;;6.83;2.23;;;;;;;15.89;97.28;101163.16;5040561;22;21034;-82
2023/06/10 04:05:22;;;;;;;7.10;2.50;;;;;;;15.85;98.00;101167.66;5036913;28;20503;-83
2023/06/10 04:07:49;;;;;;;11.83;2.90;;;;;;;15.86;97.96;101168.47;5038005;28;20435;-83
2023/06/10 04:10:16;;;;;;;8.67;2.80;;;;;;;15.87;98.03;101159.94;5043205;22;20492;-76
2023/06/10 04:12:45;;;;;;;8.93;3.13;;;;;;;15.92;98.07;101177.28;5013817;28;20444;-75
2023/06/10 04:15:13;;;;;;;7.90;2.80;;;;;;;15.96;97.69;101173.59;5013798;28;21017;-76
2023/06/10 04:17:39;;;;;;;7.43;2.90;;;;;;;15.95;97.96;101173.91;5013156;28;20479;-75
2023/06/10 04:20:09;;;;;;;9.27;2.53;;;;;;;16.08;97.65;101175.69;5012917;28;20472;-75
2023/06/10 04:22:36;;;;;;;11.33;2.70;;;;;;;16.06;97.49;101178.72;5014547;28;20448;-75
2023/06/10 04:25:03;;;;;;;10.20;2.80;;;;;;;16.13;97.41;101170.03;5016181;28;20887;-76
2023/06/10 04:27:30;;;;;;;11.33;3.70;;;;;;;16.18;97.03;101169.06;5016719;28;20475;-75
2023/06/10 04:29:58;;;;;;;17.23;3.40;;;;;;;16.21;97.07;101166.50;5016597;28;20510;-75
2023/06/10 04:32:25;;;;;;;9.37;3.30;;;;;;;16.26;96.75;101171.00;5016756;28;20547;-76
2023/06/10 04:34:52;;;;;;;7.10;2.57;;;;;;;16.32;97.09;101175.16;5017046;28;20933;-76
2023/06/10 04:37:19;;;;;;;8.20;2.63;;;;;;;16.39;96.50;101170.78;5016934;28;20484;-79
2023/06/10 04:39:46;;;;;;;6.80;2.50;;;;;;;16.40;96.54;101172.38;5017320;28;20471;-75
2023/06/10 04:42:13;;;;;;;8.00;2.00;;;;;;;16.44;96.44;101178.00;5017168;28;21035;-76
2023/06/10 04:44:40;;;;;;;9.10;3.17;;;;;;;16.46;96.01;101177.69;5016973;28;20539;-76
2023/06/10 04:47:08;;;;;;;11.80;3.00;;;;;;;16.52;95.95;101179.13;5017181;28;20453;-75
2023/06/10 04:49:36;;;;;;;9.70;3.37;;;;;;;16.58;95.93;101177.81;4997603;28;20465;-75
2023/06/10 04:52:04;;;;;;;8.63;2.53;;;;;;;16.58;95.81;101177.81;5015891;28;20441;-76
2023/06/10 04:54:30;;;;;;;9.77;3.20;;;;;;;16.60;96.06;101173.63;5016676;28;20531;-76
2023/06/10 04:56:57;;;;;;;14.60;3.43;;;;;;;16.69;96.06;101184.53;5016154;28;20536;-75
2023/06/10 04:59:24;;;;;;;12.07;3.20;;;;;;;16.81;95.50;101192.06;5007072;28;20481;-76
2023/06/10 05:01:50;;;;;;;6.60;2.53;;;;;;;16.88;95.18;101195.13;5016019;28;20507;-77
2023/06/10 05:04:18;;;;;;;6.80;2.83;;;;;;;17.02;94.57;101200.34;5016203;28;20479;-76
2023/06/10 05:06:45;;;;;;;8.10;3.20;;;;;;;17.12;94.34;101192.56;5016149;28;20467;-76
2023/06/10 05:09:12;;;;;;;9.53;2.73;;;;;;;17.20;93.96;101188.19;5016032;28;20483;-76
2023/06/10 05:11:38;;;;;;;12.70;2.90;;;;;;;17.29;93.09;101197.16;5015651;28;20868;-75
2023/06/10 05:14:05;;;;;;;6.43;2.30;;;;;;;17.35;91.99;101200.50;5015603;28;20942;-75
2023/06/10 05:16:32;;;;;;;8.73;3.13;;;;;;;17.43;91.43;101201.56;5015842;28;20484;-75
2023/06/10 05:18:58;;;;;;;6.60;2.17;;;;;;;17.47;91.28;101208.78;5016220;28;20519;-75
2023/06/10 05:21:26;;;;;;;9.33;3.40;;;;;;;17.59;91.06;101206.13;5013340;28;20551;-75
2023/06/10 05:23:53;;;;;;;7.63;2.80;;;;;;;17.65;90.62;101206.75;4996424;28;20449;-75
2023/06/10 05:26:20;;;;;;;8.80;3.40;;;;;;;17.64;90.42;101205.13;5006978;28;20445;-75
2023/06/10 05:28:46;;;;;;;7.70;2.83;;;;;;;17.70;90.22;101211.22;5016116;28;20448;-75
2023/06/10 05:31:13;;;;;;;11.80;3.80;;;;;;;17.77;89.71;101217.81;5015677;28;20522;-75
2023/06/10 05:33:40;;;;;;;9.80;2.73;;;;;;;17.83;89.67;101210.19;5014541;28;20523;-75
2023/06/10 05:36:07;;;;;;;11.30;3.20;;;;;;;17.88;89.22;101213.53;5015230;28;20875;-75
2023/06/10 05:38:35;;;;;;;7.50;2.77;;;;;;;17.89;88.47;101208.84;5015025;28;20464;-76
2023/06/10 05:41:01;;;;;;;7.83;2.77;;;;;;;17.99;88.76;101208.44;5015188;28;20479;-75
2023/06/10 05:43:28;;;;;;;8.37;3.60;;;;;;;18.06;88.15;101213.38;5014938;28;20518;-75
2023/06/10 05:45:55;;;;;;;7.60;2.80;;;;;;;18.07;87.80;101209.50;5011389;28;20483;-75
2023/06/10 05:48:22;;;;;;;11.60;3.37;;;;;;;18.12;87.79;101212.84;5014929;28;21033;-75
2023/06/10 05:50:48;;;;;;;7.40;2.80;;;;;;;18.19;87.76;101211.47;5014909;28;20970;-75
2023/06/10 05:53:15;;;;;;;8.93;2.70;;;;;;;18.26;88.09;101207.06;5015256;28;20483;-75
2023/06/10 05:55:44;;;;;;;8.90;3.37;;;;;;;18.34;87.66;101216.34;5015226;28;20448;-75
2023/06/10 05:58:12;;;;;;;9.80;2.87;;;;;;;18.35;85.94;101213.25;5015099;28;21012;-76
2023/06/10 06:00:39;;;;;;;10.97;3.70;;;;;;;18.41;85.91;101222.88;5015575;28;20472;-76
2023/06/10 06:03:07;;;;;;;7.47;2.67;;;;;;;18.48;86.01;101222.34;5014736;28;20448;-76
2023/06/10 06:05:35;;;;;;;7.40;3.40;;;;;;;18.53;85.91;101215.81;5014606;28;20454;-76
2023/06/10 06:08:02;;;;;;;7.90;3.40;;;;;;;18.60;85.54;101216.09;5014677;28;20548;-76
2023/06/10 06:10:28;;;;;;;7.50;2.70;;;;;;;18.69;85.55;101222.31;5014573;28;20487;-76
2023/06/10 06:12:56;;;;;;;7.90;3.07;;;;;;;18.79;84.92;101219.09;5014182;28;20476;-76
2023/06/10 06:15:23;;;;;;;7.03;2.63;;;;;;;18.82;85.11;101220.38;5013926;28;20436;-76
2023/06/10 06:17:52;;;;;;;8.20;2.97;;;;;;;18.92;85.22;101230.13;5014015;28;20944;-76
2023/06/10 06:20:19;;;;;;;7.40;2.83;;;;;;;18.98;84.47;101221.28;5014511;28;20479;-76
2023/06/10 06:22:46;;;;;;;7.57;2.77;;;;;;;19.10;84.37;101229.53;5014422;28;20444;-76
2023/06/10 06:25:12;;;;;;;8.37;3.03;;;;;;;19.20;84.62;101233.78;5014346;28;20472;-76
2023/06/10 06:27:39;;;;;;;9.67;3.43;;;;;;;19.23;83.04;101238.59;5014726;28;20456;-76
2023/06/10 06:30:08;;;;;;;7.00;3.17;;;;;;;19.30;83.25;101238.81;5008359;28;20463;-76
2023/06/10 06:32:35;;;;;;;9.63;3.50;;;;;;;19.32;83.22;101242.03;4995324;28;20592;-76
2023/06/10 06:35:02;;;;;;;12.83;3.30;;;;;;;19.33;82.61;101240.88;4995215;28;20449;-76
2023/06/10 06:37:29;;;;;;;7.97;3.47;;;;;;;19.28;82.58;101246.59;4994903;28;20496;-76
2023/06/10 06:39:55;;;;;;;8.13;2.87;;;;;;;19.28;81.74;101246.59;5005900;28;20543;-76
2023/06/10 06:42:22;;;;;;;9.37;3.33;;;;;;;19.31;82.61;101250.63;5014627;28;20531;-76
2023/06/10 06:44:49;;;;;;;7.80;2.83;;;;;;;19.32;82.49;101242.03;5014531;28;20507;-76
2023/06/10 06:47:19;;;;;;;7.10;3.17;;;;;;;19.42;83.41;101244.28;5013944;28;20452;-76
2023/06/10 06:49:46;;;;;;;15.27;3.83;;;;;;;19.51;83.06;101243.38;5014140;28;20479;-76
2023/06/10 06:52:13;;;;;;;8.67;3.53;;;;;;;19.66;82.65;101245.47;5014416;28;20467;-76
2023/06/10 06:54:39;;;;;;;11.40;3.87;;;;;;;19.86;82.41;101249.19;5014508;28;20476;-77
2023/06/10 06:57:07;;;;;;;7.23;3.07;;;;;;;19.97;81.04;101249.50;5014004;28;20484;-75
2023/06/10 06:59:33;;;;;;;7.70;3.47;;;;;;;20.01;80.79;101255.88;5014395;28;20456;-76
2023/06/10 07:02:00;;;;;;;9.03;3.10;;;;;;;20.15;80.53;101262.63;5014714;28;20456;-75
2023/06/10 07:04:28;;;;;;;7.00;3.13;;;;;;;20.32;80.04;101256.03;5014698;28;20448;-76
2023/06/10 07:06:55;;;;;;;8.40;3.43;;;;;;;20.44;77.49;101257.09;5014179;28;20444;-75
2023/06/10 07:09:22;;;;;;;9.90;4.10;;;;;;;20.55;76.90;101258.25;5014479;28;20908;-75
2023/06/10 07:11:48;;;;;;;10.77;3.57;;;;;;;20.64;76.89;101273.44;5014804;28;20982;-75
2023/06/10 07:14:15;;;;;;;8.93;3.27;;;;;;;20.80;77.26;101272.66;5014282;28;20521;-75
2023/06/10 07:16:42;;;;;;;7.63;3.00;;;;;;;20.88;74.90;101278.00;5014399;28;20437;-76
2023/06/10 07:19:08;;;;;;;11.43;3.33;;;;;;;21.02;75.30;101272.03;5014652;28;20455;-76
2023/06/10 07:21:37;;;;;;;7.07;2.97;;;;;;;21.24;74.33;101270.63;5014699;28;20543;-76
2023/06/10 07:24:05;;;;;;;7.30;3.10;;;;;;;21.48;74.14;101274.38;4996696;28;20447;-76
2023/06/10 07:26:32;;;;;;;8.53;3.50;;;;;;;21.61;72.83;101273.09;4995570;28;20461;-76
2023/06/10 07:28:59;;;;;;;11.00;3.47;;;;;;;21.69;72.24;101277.59;4994738;28;20875;-77
2023/06/10 07:31:25;;;;;;;11.10;3.70;;;;;;;21.67;71.07;101279.94;4994602;28;21057;-76
2023/06/10 07:33:52;;;;;;;14.00;3.77;;;;;;;21.59;71.22;101273.44;4994728;28;20453;-76
2023/06/10 07:36:19;;;;;;;9.83;2.77;;;;;;;21.62;72.06;101274.69;5013466;28;20444;-76
2023/06/10 07:38:47;;;;;;;7.67;3.47;;;;;;;21.69;71.84;101283.09;5013823;28;20575;-75
2023/06/10 07:41:14;;;;;;;7.40;3.10;;;;;;;21.65;71.37;101291.31;5011265;28;20559;-75
2023/06/10 07:43:40;;;;;;;8.77;3.47;;;;;;;21.72;71.84;101285.16;4997568;28;20445;-75
2023/06/10 07:46:07;;;;;;;7.70;3.23;;;;;;;21.61;72.07;101281.38;5009332;28;20527;-75
2023/06/10 07:48:34;;;;;;;7.30;2.90;;;;;;;21.83;71.97;101283.44;5005382;28;20441;-75
2023/06/10 07:51:00;;;;;;;7.40;2.90;;;;;;;22.01;71.31;101285.81;4994680;28;20527;-75
2023/06/10 07:53:27;;;;;;;9.17;3.50;;;;;;;22.25;70.86;101276.47;5007450;28;20521;-75
2023/06/10 07:55:56;;;;;;;7.33;3.10;;;;;;;22.33;68.68;101281.75;5005844;28;20834;-75
2023/06/10 07:58:23;;;;;;;15.50;3.40;;;;;;;22.48;68.52;101280.06;4996974;28;20493;-76
2023/06/10 08:00:49;;;;;;;10.67;3.40;;;;;;;22.69;69.20;101276.91;5015172;28;20899;-75
2023/06/10 08:03:16;;;;;;;6.70;2.70;;;;;;;22.99;68.58;101281.81;5017657;28;20444;-75
2023/06/10 08:05:43;;;;;;;7.47;3.03;;;;;;;23.24;66.93;101285.81;5017565;28;20452;-75
2023/06/10 08:08:09;;;;;;;9.13;3.07;;;;;;;23.42;65.21;101277.78;5017152;28;20483;-75
2023/06/10 08:10:36;;;;;;;12.30;3.70;;;;;;;23.45;65.38;101282.56;5017456;28;20475;-75
2023/06/10 08:13:04;;;;;;;7.97;3.13;;;;;;;23.59;65.22;101298.56;5017627;28;20506;-75
2023/06/10 08:15:31;;;;;;;8.83;3.07;;;;;;;23.69;63.35;101292.44;5017221;28;20444;-75
2023/06/10 08:17:58;;;;;;;10.27;3.57;;;;;;;23.72;63.47;101291.69;5017238;28;20523;-76
2023/06/10 08:20:24;;;;;;;7.80;3.47;;;;;;;23.72;63.57;101296.41;5017277;28;20472;-75
2023/06/10 08:22:51;;;;;;;10.27;4.23;;;;;;;23.68;63.14;101296.34;5016896;28;20472;-75
2023/06/10 08:25:18;;;;;;;14.47;3.20;;;;;;;23.65;62.92;101305.44;5017167;28;20454;-75
2023/06/10 08:27:44;;;;;;;8.97;3.40;;;;;;;23.69;65.21;101314.56;5015303;28;20519;-75
2023/06/10 08:30:13;;;;;;;11.63;3.73;;;;;;;23.71;64.76;101311.44;5016186;28;20499;-76
2023/06/10 08:32:40;;;;;;;11.37;3.33;;;;;;;23.74;64.43;101317.00;5016076;28;20439;-75
2023/06/10 08:35:07;;;;;;;10.90;3.13;;;;;;;23.66;63.94;101315.31;5016741;28;20812;-75
2023/06/10 08:37:33;;;;;;;8.80;2.73;;;;;;;23.69;64.99;101313.78;5016536;28;20488;-75
2023/06/10 08:40:01;;;;;;;7.17;2.97;;;;;;;23.56;63.70;101307.63;5016293;28;20464;-75
2023/06/10 08:42:35;;;;;;;8.77;3.07;;;;;;;23.68;64.35;101315.72;5016624;28;20905;-74
2023/06/10 08:45:03;;;;;;;8.40;3.60;;;;;;;23.74;64.49;101319.78;5016605;28;20439;-75
2023/06/10 08:47:37;;;;;;;9.20;4.50;;;;;;;23.81;64.71;101314.34;5017007;28;20936;-75
2023/06/10 08:50:13;;;;;;;9.70;4.50;;;;;;;23.91;64.77;101310.94;5010391;28;20444;-75
2023/06/10 08:53:04;;;;;;;7.73;4.23;;;;;;;23.99;63.69;101311.03;4997039;28;20788;-76
2023/06/10 08:55:33;;;;;;;7.60;3.27;;;;;;;24.15;64.05;101317.19;4997619;28;20472;-75
2023/06/10 08:58:01;;;;;;;7.40;3.20;;;;;;;24.28;63.56;101321.28;4996683;28;20590;-76
2023/06/10 09:00:29;;;;;;;8.10;3.33;;;;;;;24.37;62.40;101319.06;4996831;28;20467;-75
2023/06/10 09:02:58;;;;;;;8.80;3.97;;;;;;;24.29;61.64;101325.66;4998346;28;20825;-76
2023/06/10 09:05:25;;;;;;;7.30;3.80;;;;;;;24.31;61.22;101320.56;5015957;28;20538;-76
2023/06/10 09:07:53;;;;;;;7.73;3.13;;;;;;;24.28;60.90;101320.50;5015663;28;20450;-75
2023/06/10 09:10:20;;;;;;;8.80;3.77;;;;;;;24.08;59.78;101325.38;5014254;28;21001;-75
2023/06/10 09:12:47;;;;;;;7.97;3.40;;;;;;;24.10;61.15;101321.06;5014375;28;20904;-75
2023/06/10 09:15:14;;;;;;;7.67;3.60;;;;;;;24.24;62.72;101314.91;5014826;28;20468;-75
2023/06/10 09:17:41;;;;;;;8.27;3.83;;;;;;;24.38;62.09;101319.84;5014204;28;20484;-75
2023/06/10 09:20:10;;;;;;;8.50;3.97;;;;;;;24.42;60.63;101324.25;5014614;28;20550;-75
2023/06/10 09:22:36;;;;;;;9.37;3.40;;;;;;;24.47;60.52;101316.78;5014253;28;20850;-75
2023/06/10 09:25:05;;;;;;;8.43;3.20;;;;;;;24.58;61.97;101320.50;5014592;28;20528;-75
2023/06/10 09:27:32;;;;;;;10.17;3.27;;;;;;;24.73;60.43;101326.97;5014884;28;20535;-75
2023/06/10 09:29:59;;;;;;;8.87;3.80;;;;;;;24.88;61.45;101320.41;5014819;28;20488;-75
2023/06/10 09:32:27;;;;;;;7.30;2.53;;;;;;;25.00;60.60;101319.34;5015213;28;20502;-74
2023/06/10 09:34:54;;;;;;;6.27;2.37;;;;;;;24.92;58.90;101324.00;5015235;28;20458;-75
2023/06/10 09:37:23;;;;;;;10.17;3.97;;;;;;;25.00;59.64;101319.34;5013142;28;20495;-75
2023/06/10 09:40:04;;;;;;;8.90;3.20;;;;;;;24.98;60.06;101321.69;5011921;28;20465;-75
2023/06/10 09:42:35;;;;;;;7.63;3.93;;;;;;;24.97;60.23;101328.41;5001095;28;20472;-75
2023/06/10 09:45:01;;;;;;;7.27;3.00;;;;;;;24.89;59.38;101328.34;4995564;28;20487;-75
2023/06/10 09:47:28;;;;;;;7.83;3.20;;;;;;;24.89;61.14;101325.56;5014426;28;20487;-74
2023/06/10 09:49:55;;;;;;;11.13;4.27;;;;;;;24.87;60.49;101330.69;5014357;28;20502;-75
2023/06/10 09:52:27;;;;;;;11.77;4.10;;;;;;;24.79;60.52;101329.06;5013512;28;21009;-75
2023/06/10 09:54:59;;;;;;;10.27;4.27;;;;;;;24.70;61.62;101324.97;5014414;28;20518;-75
2023/06/10 09:57:26;;;;;;;11.77;3.63;;;;;;;24.53;62.76;101327.19;5012031;28;20439;-75
2023/06/10 09:59:54;;;;;;;8.23;3.20;;;;;;;24.35;64.49;101335.25;5004895;28;20543;-75
2023/06/10 10:02:21;;;;;;;6.30;2.90;;;;;;;24.19;65.90;101326.31;5013406;28;20539;-75
2023/06/10 10:04:48;;;;;;;9.87;3.80;;;;;;;24.06;67.91;101324.97;5000905;28;20533;-75
2023/06/10 10:07:15;;;;;;;11.83;3.93;;;;;;;23.85;69.84;101320.72;4995752;28;20445;-74
2023/06/10 10:09:43;;;;;;;12.03;4.00;;;;;;;23.72;70.83;101324.88;4975685;28;1126866;-75
2023/06/10 10:12:13;;;;;;;7.20;3.30;;;;;;;23.61;73.48;101318.38;5015689;28;20448;-74
2023/06/10 10:14:44;;;;;;;11.80;3.30;;;;;;;23.47;73.27;101324.47;5013910;28;20506;-74
2023/06/10 10:17:12;;;;;;;8.03;3.47;;;;;;;23.38;73.55;101333.03;5015092;28;20428;-74
2023/06/10 10:19:47;;;;;;;12.07;4.23;;;;;;;23.33;73.74;101327.81;5014495;28;20503;-74
2023/06/10 10:22:19;;;;;;;12.13;4.60;;;;;;;23.27;74.59;101329.28;5015017;28;20432;-74
2023/06/10 10:24:50;;;;;;;11.73;3.93;;;;;;;23.27;75.82;101337.56;5014913;28;20464;-74
2023/06/10 10:27:21;;;;;;;7.97;3.80;;;;;;;23.24;74.52;101321.75;5014942;28;20437;-75
2023/06/10 10:29:53;;;;;;;8.37;3.20;;;;;;;23.22;74.66;101323.28;5014354;28;20492;-75
2023/06/10 10:32:23;;;;;;;7.60;3.10;;;;;;;23.19;74.01;101330.31;5014714;28;20544;-75
2023/06/10 10:34:56;;;;;;;9.67;4.00;;;;;;;23.14;74.39;101336.97;5015115;28;20431;-75
2023/06/10 10:37:24;;;;;;;8.53;4.07;;;;;;;23.01;73.30;101327.25;5015169;28;20475;-74
2023/06/10 10:39:53;;;;;;;9.00;4.10;;;;;;;22.95;72.11;101331.50;5014428;28;20506;-75
2023/06/10 10:42:20;;;;;;;7.97;3.53;;;;;;;22.90;71.72;101332.59;5014935;28;20499;-74
2023/06/10 10:44:50;;;;;;;17.60;3.90;;;;;;;22.83;69.21;101331.63;5015071;28;20804;-74
2023/06/10 10:47:22;;;;;;;7.60;3.67;;;;;;;22.82;71.81;101330.03;5015513;28;20942;-74
2023/06/10 10:49:52;;;;;;;8.13;3.67;;;;;;;22.55;68.67;101329.13;5015150;28;20472;-75
2023/06/10 10:52:19;;;;;;;8.30;3.63;;;;;;;22.61;70.74;101327.66;5014763;28;20498;-75
2023/06/10 10:54:47;;;;;;;10.70;3.27;;;;;;;22.64;71.49;101319.44;5015060;28;20515;-74
2023/06/10 10:57:25;;;;;;;8.87;3.80;;;;;;;22.59;71.73;101314.22;5014964;28;20448;-74
2023/06/10 11:00:01;;;;;;;8.47;3.37;;;;;;;22.56;71.80;101320.47;5014566;28;20582;-74
2023/06/10 11:02:38;;;;;;;9.17;3.73;;;;;;;22.47;71.08;101311.59;5014957;28;20534;-74
2023/06/10 11:05:07;;;;;;;8.03;3.50;;;;;;;22.39;70.92;101307.91;5014462;28;20443;-74
2023/06/10 11:07:37;;;;;;;7.10;2.90;;;;;;;22.38;70.87;101309.06;5014561;28;21001;-74
2023/06/10 11:10:07;;;;;;;9.27;3.17;;;;;;;22.38;70.12;101302.75;5015135;28;20476;-74
2023/06/10 11:13:00;;;;;;;9.43;3.40;;;;;;;22.39;71.18;101299.63;5014952;28;20460;-75
2023/06/10 11:15:28;;;;;;;8.53;3.60;;;;;;;22.33;71.09;101290.03;5014852;28;20447;-75
2023/06/10 11:18:13;;;;;;;9.90;4.13;;;;;;;22.42;71.92;101292.59;5014742;28;20498;-74
2023/06/10 11:20:55;;;;;;;8.00;3.67;;;;;;;22.46;71.73;101285.16;5014707;28;20478;-74
2023/06/10 11:23:39;;;;;;;7.70;3.40;;;;;;;22.53;73.12;101281.72;5014856;28;20437;-75
2023/06/10 11:26:20;;;;;;;7.33;3.20;;;;;;;22.57;71.06;101280.63;5014296;28;20479;-74
2023/06/10 11:29:12;;;;;;;6.70;3.10;;;;;;;22.62;67.51;101279.53;5014601;28;20436;-74